createdAt,value
2023-02-12T00:02:18.585Z,2.80
2023-02-12T00:04:48.767Z,2.80
2023-02-12T00:07:16.124Z,3.90
2023-02-12T00:09:43.127Z,3.40
2023-02-12T00:12:11.131Z,2.90
2023-02-12T00:14:38.285Z,3.08
2023-02-12T00:17:05.556Z,2.97
2023-02-12T00:19:32.501Z,3.08
2023-02-12T00:22:00.477Z,3.10
2023-02-12T00:24:28.023Z,2.90
2023-02-12T00:26:54.981Z,3.25
2023-02-12T00:29:21.957Z,3.58
2023-02-12T00:31:49.097Z,3.38
2023-02-12T00:34:16.970Z,3.10
2023-02-12T00:36:44.173Z,3.05
2023-02-12T00:39:11.668Z,2.65
2023-02-12T00:41:38.630Z,2.80
2023-02-12T00:44:05.900Z,3.50
2023-02-12T00:46:32.785Z,3.10
2023-02-12T00:49:00.192Z,3.10
2023-02-12T00:51:27.062Z,3.35
2023-02-12T00:53:54.334Z,3.05
2023-02-12T00:56:21.711Z,2.75
2023-02-12T00:58:48.997Z,2.92
2023-02-12T01:01:15.910Z,3.00
2023-02-12T01:03:42.879Z,2.88
2023-02-12T01:06:09.778Z,2.88
2023-02-12T01:08:36.666Z,2.90
2023-02-12T01:11:06.281Z,2.75
2023-02-12T01:13:35.052Z,2.75
2023-02-12T01:16:17.973Z,3.00
2023-02-12T01:18:45.548Z,2.60
2023-02-12T01:21:21.738Z,2.92
2023-02-12T01:23:49.704Z,2.80
2023-02-12T01:26:17.664Z,3.05
2023-02-12T01:28:51.997Z,2.83
2023-02-12T01:31:25.627Z,3.13
2023-02-12T01:33:58.967Z,2.58
2023-02-12T01:36:26.941Z,2.83
2023-02-12T01:38:54.203Z,2.92
2023-02-12T01:41:29.131Z,2.50
2023-02-12T01:44:14.256Z,2.63
2023-02-12T01:46:41.887Z,2.63
2023-02-12T01:49:16.652Z,2.50
2023-02-12T01:51:46.355Z,2.55
2023-02-12T01:54:17.521Z,2.42
2023-02-12T01:56:44.851Z,2.42
2023-02-12T01:59:13.035Z,2.58
2023-02-12T02:01:40.089Z,2.35
2023-02-12T02:04:15.083Z,2.45
2023-02-12T02:06:52.622Z,2.33
2023-02-12T02:09:20.161Z,2.50
2023-02-12T02:12:05.628Z,2.22
2023-02-12T02:14:32.855Z,2.50
2023-02-12T02:17:27.741Z,2.45
2023-02-12T02:20:22.997Z,2.47
2023-02-12T02:23:08.722Z,2.40
2023-02-12T02:25:58.086Z,2.20
2023-02-12T02:28:53.421Z,2.65
2023-02-12T02:31:38.137Z,2.45
2023-02-12T02:34:20.283Z,2.60
2023-02-12T02:37:00.029Z,2.90
2023-02-12T02:39:48.627Z,2.78
2023-02-12T02:42:32.302Z,2.70
2023-02-12T02:45:18.838Z,2.55
2023-02-12T02:47:55.390Z,2.97
2023-02-12T02:50:27.088Z,2.60
2023-02-12T02:53:02.021Z,2.70
2023-02-12T02:55:47.134Z,2.53
2023-02-12T02:58:16.510Z,2.80
2023-02-12T03:00:53.794Z,2.80
2023-02-12T03:03:26.376Z,2.90
2023-02-12T03:05:59.309Z,2.72
2023-02-12T03:08:34.384Z,3.00
2023-02-12T03:11:20.985Z,2.70
2023-02-12T03:13:52.683Z,3.00
2023-02-12T03:16:27.616Z,2.78
2023-02-12T03:19:02.453Z,2.80
2023-02-12T03:21:35.392Z,2.85
2023-02-12T03:24:15.943Z,3.00
2023-02-12T03:26:50.796Z,2.70
2023-02-12T03:29:17.893Z,2.67
2023-02-12T03:31:56.786Z,2.40
2023-02-12T03:34:50.634Z,2.60
2023-02-12T03:37:25.106Z,2.83
2023-02-12T03:39:58.391Z,2.58
2023-02-12T03:42:39.555Z,2.65
2023-02-12T03:45:28.794Z,2.67
2023-02-12T03:48:04.709Z,2.58
2023-02-12T03:50:37.529Z,2.40
2023-02-12T03:53:06.080Z,2.67
2023-02-12T03:55:37.943Z,2.55
2023-02-12T03:58:09.532Z,2.60
2023-02-12T04:00:38.818Z,2.70
2023-02-12T04:03:07.159Z,2.80
2023-02-12T04:05:34.477Z,2.70
2023-02-12T04:08:04.393Z,2.58
2023-02-12T04:11:11.677Z,2.40
2023-02-12T04:14:00.938Z,2.38
2023-02-12T04:16:40.992Z,2.88
2023-02-12T04:19:13.063Z,2.47
2023-02-12T04:21:58.358Z,2.60
2023-02-12T04:25:22.272Z,2.67
2023-02-12T04:28:01.020Z,2.80
2023-02-12T04:30:37.820Z,2.88
2023-02-12T04:33:07.208Z,2.55
2023-02-12T04:35:47.129Z,2.65
2023-02-12T04:38:19.929Z,2.78
2023-02-12T04:40:48.209Z,2.55
2023-02-12T04:43:15.434Z,2.67
2023-02-12T04:45:42.812Z,2.95
2023-02-12T04:48:10.707Z,2.75
2023-02-12T04:50:42.845Z,2.80
2023-02-12T04:53:10.821Z,3.00
2023-02-12T04:55:38.021Z,2.70
2023-02-12T04:58:05.691Z,2.75
2023-02-12T05:00:33.241Z,2.80
2023-02-12T05:03:00.113Z,2.92
2023-02-12T05:05:27.619Z,2.70
2023-02-12T05:07:54.473Z,2.65
2023-02-12T05:10:21.395Z,2.63
2023-02-12T05:12:48.202Z,2.70
2023-02-12T05:15:15.258Z,2.63
2023-02-12T05:17:42.498Z,2.70
2023-02-12T05:20:10.585Z,2.65
2023-02-12T05:22:37.560Z,2.70
2023-02-12T05:25:05.732Z,3.63
2023-02-12T05:27:33.027Z,4.32
2023-02-12T05:29:59.870Z,3.15
2023-02-12T05:32:27.097Z,3.03
2023-02-12T05:34:54.302Z,3.08
2023-02-12T05:37:21.582Z,2.90
2023-02-12T05:39:50.488Z,2.47
2023-02-12T05:42:17.752Z,2.53
2023-02-12T05:44:45.196Z,2.85
2023-02-12T05:47:12.031Z,2.70
2023-02-12T05:49:38.880Z,2.55
2023-02-12T05:52:06.181Z,2.53
2023-02-12T05:54:33.010Z,2.80
2023-02-12T05:56:59.864Z,3.10
2023-02-12T05:59:27.117Z,3.00
2023-02-12T06:01:54.002Z,2.97
2023-02-12T06:04:27.196Z,3.30
2023-02-12T06:06:55.859Z,2.90
2023-02-12T06:09:23.638Z,2.85
2023-02-12T06:11:50.528Z,2.80
2023-02-12T06:14:19.643Z,2.70
2023-02-12T06:16:48.831Z,3.38
2023-02-12T06:19:16.275Z,2.90
2023-02-12T06:21:44.845Z,3.33
2023-02-12T06:24:13.626Z,2.78
2023-02-12T06:26:41.036Z,2.65
2023-02-12T06:29:08.266Z,2.67
2023-02-12T06:31:36.909Z,3.20
2023-02-12T06:34:06.730Z,3.40
2023-02-12T06:36:34.050Z,3.20
2023-02-12T06:39:02.778Z,2.90
2023-02-12T06:41:30.207Z,3.55
2023-02-12T06:43:57.477Z,3.17
2023-02-12T06:46:24.776Z,2.70
2023-02-12T06:48:56.601Z,3.33
2023-02-12T06:51:23.963Z,3.10
2023-02-12T06:53:52.326Z,3.42
2023-02-12T06:56:20.483Z,3.47
2023-02-12T06:58:52.541Z,4.78
2023-02-12T07:01:22.900Z,4.28
2023-02-12T07:03:51.511Z,5.30
2023-02-12T07:06:18.886Z,3.40
2023-02-12T07:08:46.089Z,3.80
2023-02-12T07:11:13.204Z,3.40
2023-02-12T07:13:44.679Z,3.10
2023-02-12T07:16:17.191Z,3.70
2023-02-12T07:18:44.923Z,3.35
2023-02-12T07:21:13.604Z,3.08
2023-02-12T07:23:41.261Z,3.05
2023-02-12T07:26:11.945Z,3.30
2023-02-12T07:28:39.974Z,3.05
2023-02-12T07:31:21.988Z,3.10
2023-02-12T07:33:49.618Z,3.03
2023-02-12T07:36:18.710Z,3.00
2023-02-12T07:38:45.868Z,2.72
2023-02-12T07:41:24.350Z,3.17
2023-02-12T07:43:56.926Z,13.57
2023-02-12T07:46:30.094Z,4.32
2023-02-12T07:48:59.194Z,3.35
2023-02-12T07:51:27.686Z,2.92
2023-02-12T07:53:54.922Z,2.90
2023-02-12T07:56:24.803Z,3.10
2023-02-12T07:58:53.610Z,3.00
2023-02-12T08:01:23.501Z,2.90
2023-02-12T08:03:51.163Z,4.20
2023-02-12T08:06:20.610Z,3.33
2023-02-12T08:08:47.993Z,2.80
2023-02-12T08:11:15.794Z,2.85
2023-02-12T08:13:43.042Z,3.22
2023-02-12T08:16:20.681Z,2.97
2023-02-12T08:18:47.928Z,2.53
2023-02-12T08:21:21.178Z,2.30
2023-02-12T08:23:50.744Z,2.25
2023-02-12T08:26:32.422Z,2.35
2023-02-12T08:29:08.357Z,2.92
2023-02-12T08:31:40.876Z,2.40
2023-02-12T08:34:15.404Z,2.17
2023-02-12T08:36:42.697Z,2.72
2023-02-12T08:39:10.787Z,1.75
2023-02-12T08:41:37.773Z,1.85
2023-02-12T08:44:05.642Z,2.15
2023-02-12T08:46:35.051Z,21.67
2023-02-12T08:49:12.120Z,2.58
2023-02-12T08:51:41.301Z,2.00
2023-02-12T08:54:12.647Z,2.08
2023-02-12T08:56:40.496Z,1.60
2023-02-12T08:59:09.302Z,1.77
2023-02-12T09:01:43.649Z,1.60
2023-02-12T09:04:21.550Z,1.48
2023-02-12T09:06:48.860Z,1.88
2023-02-12T09:09:16.242Z,1.48
2023-02-12T09:11:43.299Z,1.73
2023-02-12T09:14:13.601Z,1.50
2023-02-12T09:16:41.272Z,1.88
2023-02-12T09:19:09.680Z,1.67
2023-02-12T09:21:36.928Z,1.90
2023-02-12T09:24:03.874Z,1.52
2023-02-12T09:26:31.203Z,1.77
2023-02-12T09:28:59.377Z,1.85
2023-02-12T09:31:29.283Z,1.90
2023-02-12T09:34:00.716Z,1.63
2023-02-12T09:36:27.911Z,1.50
2023-02-12T09:38:55.218Z,1.60
2023-02-12T09:41:22.651Z,1.67
2023-02-12T09:43:53.077Z,1.90
2023-02-12T09:46:39.529Z,2.05
2023-02-12T09:49:26.530Z,2.20
2023-02-12T09:51:55.164Z,2.00
2023-02-12T09:54:26.012Z,2.15
2023-02-12T09:56:59.431Z,3.03
2023-02-12T09:59:26.717Z,1.60
2023-02-12T10:01:54.040Z,2.20
2023-02-12T10:04:22.667Z,3.55
2023-02-12T10:07:12.607Z,2.83
2023-02-12T10:09:45.706Z,1.98
2023-02-12T10:12:28.264Z,1.80
2023-02-12T10:15:16.021Z,1.88
2023-02-12T10:17:52.891Z,1.75
2023-02-12T10:20:58.712Z,1.73
2023-02-12T10:23:41.829Z,2.25
2023-02-12T10:26:32.305Z,1.88
2023-02-12T10:29:09.522Z,1.98
2023-02-12T10:31:40.924Z,2.70
2023-02-12T10:34:32.749Z,1.70
2023-02-12T10:37:12.683Z,1.85
2023-02-12T10:39:48.804Z,1.80
2023-02-12T10:42:22.128Z,2.35
2023-02-12T10:44:49.357Z,2.25
2023-02-12T10:47:20.631Z,2.53
2023-02-12T10:50:02.317Z,2.75
2023-02-12T10:52:48.608Z,2.45
2023-02-12T10:55:36.962Z,9.73
2023-02-12T10:58:05.120Z,3.60
2023-02-12T11:00:33.441Z,2.65
2023-02-12T11:03:12.608Z,3.05
2023-02-12T11:05:42.463Z,2.67
2023-02-12T11:08:32.153Z,2.47
2023-02-12T11:11:27.819Z,2.53
2023-02-12T11:14:16.392Z,3.28
2023-02-12T11:16:58.882Z,2.70
2023-02-12T11:19:32.015Z,3.08
2023-02-12T11:22:11.654Z,2.80
2023-02-12T11:24:38.831Z,3.10
2023-02-12T11:27:31.774Z,3.10
2023-02-12T11:30:30.532Z,2.88
2023-02-12T11:33:39.019Z,2.72
2023-02-12T11:36:15.347Z,3.53
2023-02-12T11:38:52.815Z,2.78
2023-02-12T11:41:41.356Z,3.03
2023-02-12T11:44:28.655Z,2.85
2023-02-12T11:47:09.637Z,2.90
2023-02-12T11:49:50.523Z,2.58
2023-02-12T11:52:22.253Z,2.15
2023-02-12T11:54:51.582Z,2.92
2023-02-12T11:57:42.848Z,3.00
2023-02-12T12:00:38.652Z,2.80
2023-02-12T12:03:20.308Z,3.45
2023-02-12T12:05:51.419Z,2.83
2023-02-12T12:08:29.568Z,2.83
2023-02-12T12:11:28.257Z,3.28
2023-02-12T12:14:16.760Z,2.92
2023-02-12T12:17:09.461Z,3.38
2023-02-12T12:19:54.925Z,3.27
2023-02-12T12:22:42.480Z,3.13
2023-02-12T12:25:30.969Z,3.38
2023-02-12T12:28:17.593Z,3.30
2023-02-12T12:30:47.577Z,3.67
2023-02-12T12:33:46.529Z,4.20
2023-02-12T12:36:13.491Z,4.93
2023-02-12T12:39:01.470Z,4.78
2023-02-12T12:41:42.393Z,4.70
2023-02-12T12:44:37.177Z,4.65
2023-02-12T12:47:19.068Z,5.07
2023-02-12T12:49:54.652Z,5.25
2023-02-12T12:52:24.729Z,5.25
2023-02-12T12:55:12.724Z,4.72
2023-02-12T12:57:47.013Z,5.18
2023-02-12T13:00:31.988Z,5.22
2023-02-12T13:03:17.229Z,7.65
2023-02-12T13:05:52.049Z,5.93
2023-02-12T13:09:16.212Z,6.05
2023-02-12T13:12:16.656Z,6.10
2023-02-12T13:15:04.586Z,6.05
2023-02-12T13:17:37.016Z,5.93
2023-02-12T13:20:18.367Z,6.45
2023-02-12T13:22:50.597Z,6.57
2023-02-12T13:25:42.756Z,6.30
2023-02-12T13:28:41.933Z,5.35
2023-02-12T13:31:32.496Z,7.43
2023-02-12T13:34:04.826Z,6.55
2023-02-12T13:36:35.065Z,6.65
2023-02-12T13:39:36.640Z,5.75
2023-02-12T13:42:43.858Z,5.72
2023-02-12T13:45:29.573Z,5.90
2023-02-12T13:48:18.016Z,5.07
2023-02-12T13:51:00.998Z,5.88
2023-02-12T13:53:47.485Z,5.50
2023-02-12T13:56:31.875Z,9.10
2023-02-12T13:59:00.967Z,5.18
2023-02-12T14:01:49.614Z,4.88
2023-02-12T14:04:19.687Z,4.75
2023-02-12T14:07:14.032Z,4.30
2023-02-12T14:09:42.639Z,4.10
2023-02-12T14:12:15.045Z,4.13
2023-02-12T14:14:48.707Z,4.28
2023-02-12T14:17:30.949Z,4.47
2023-02-12T14:20:30.509Z,4.82
2023-02-12T14:23:20.831Z,5.05
2023-02-12T14:25:58.789Z,5.10
2023-02-12T14:28:40.233Z,4.93
2023-02-12T14:31:27.397Z,4.40
2023-02-12T14:34:06.288Z,4.45
2023-02-12T14:36:33.619Z,4.15
2023-02-12T14:39:28.018Z,4.57
2023-02-12T14:42:15.683Z,4.55
2023-02-12T14:44:55.026Z,3.80
2023-02-12T14:47:30.526Z,4.40
2023-02-12T14:50:07.387Z,4.03
2023-02-12T14:52:40.917Z,4.43
2023-02-12T14:55:31.027Z,4.97
2023-02-12T14:58:07.636Z,4.55
2023-02-12T15:00:40.463Z,6.00
2023-02-12T15:03:14.006Z,6.25
2023-02-12T15:06:05.876Z,6.80
2023-02-12T15:08:48.936Z,5.63
2023-02-12T15:11:38.667Z,5.85
2023-02-12T15:14:23.982Z,5.68
2023-02-12T15:17:14.988Z,6.20
2023-02-12T15:19:51.313Z,5.68
2023-02-12T15:22:25.151Z,10.30
2023-02-12T15:24:52.044Z,5.97
2023-02-12T15:27:20.548Z,6.10
2023-02-12T15:29:51.202Z,5.60
2023-02-12T15:32:27.620Z,6.38
2023-02-12T15:34:55.619Z,6.70
2023-02-12T15:37:29.128Z,6.97
2023-02-12T15:39:59.533Z,6.93
2023-02-12T15:42:38.466Z,7.55
2023-02-12T15:45:13.962Z,7.70
2023-02-12T15:47:41.885Z,8.35
2023-02-12T15:50:18.270Z,8.88
2023-02-12T15:52:47.501Z,8.52
2023-02-12T15:55:21.636Z,8.18
2023-02-12T15:57:59.734Z,8.43
2023-02-12T16:00:47.625Z,8.75
2023-02-12T16:03:33.246Z,9.07
2023-02-12T16:06:16.672Z,9.63
2023-02-12T16:08:46.019Z,9.27
2023-02-12T16:11:16.875Z,8.95
2023-02-12T16:14:00.820Z,9.40
2023-02-12T16:16:31.283Z,10.02
2023-02-12T16:19:24.443Z,9.95
2023-02-12T16:22:23.080Z,10.00
2023-02-12T16:24:52.730Z,10.50
2023-02-12T16:27:23.195Z,9.98
2023-02-12T16:29:53.445Z,11.38
2023-02-12T16:32:41.867Z,12.40
2023-02-12T16:35:12.362Z,12.90
2023-02-12T16:37:39.206Z,14.23
2023-02-12T16:40:18.028Z,13.45
2023-02-12T16:42:47.866Z,11.27
2023-02-12T16:45:26.950Z,12.52
2023-02-12T16:48:23.369Z,11.32
2023-02-12T16:50:56.093Z,11.43
2023-02-12T16:53:45.639Z,10.90
2023-02-12T16:56:16.029Z,22.25
2023-02-12T16:58:43.250Z,13.35
2023-02-12T17:01:10.723Z,11.85
2023-02-12T17:03:38.901Z,12.18
2023-02-12T17:06:06.233Z,12.60
2023-02-12T17:08:33.052Z,13.38
2023-02-12T17:11:00.372Z,14.30
2023-02-12T17:13:27.286Z,15.60
2023-02-12T17:15:57.316Z,16.77
2023-02-12T17:18:25.448Z,19.60
2023-02-12T17:20:56.157Z,18.80
2023-02-12T17:23:23.948Z,19.77
2023-02-12T17:25:51.246Z,18.65
2023-02-12T17:28:18.208Z,17.45
2023-02-12T17:30:45.165Z,18.95
2023-02-12T17:33:12.792Z,18.10
2023-02-12T17:35:40.026Z,19.77
2023-02-12T17:38:07.367Z,19.17
2023-02-12T17:40:38.952Z,18.75
2023-02-12T17:43:06.533Z,16.35
2023-02-12T17:45:33.866Z,16.35
2023-02-12T17:48:01.199Z,17.50
2023-02-12T17:50:28.424Z,17.48
2023-02-12T17:52:55.697Z,16.55
2023-02-12T17:55:22.647Z,17.05
2023-02-12T17:57:53.575Z,16.55
2023-02-12T18:00:21.221Z,14.75
2023-02-12T18:02:49.010Z,14.20
2023-02-12T18:05:16.337Z,16.00
2023-02-12T18:07:43.335Z,15.80
2023-02-12T18:10:11.746Z,17.90
2023-02-12T18:12:38.784Z,17.58
2023-02-12T18:15:07.550Z,17.02
2023-02-12T18:17:35.770Z,17.75
2023-02-12T18:20:03.035Z,16.27
2023-02-12T18:22:29.933Z,15.27
2023-02-12T18:24:57.724Z,14.13
2023-02-12T18:27:25.004Z,15.45
2023-02-12T18:29:52.215Z,17.17
2023-02-12T18:32:19.182Z,16.60
2023-02-12T18:34:46.728Z,24.88
2023-02-12T18:37:13.990Z,17.90
2023-02-12T18:39:40.915Z,16.27
2023-02-12T18:42:08.821Z,17.38
2023-02-12T18:44:36.140Z,17.63
2023-02-12T18:47:03.432Z,19.13
2023-02-12T18:49:30.884Z,21.27
2023-02-12T18:51:58.163Z,21.25
2023-02-12T18:54:25.124Z,22.13
2023-02-12T18:56:53.441Z,21.83
2023-02-12T18:59:21.243Z,23.05
2023-02-12T19:01:50.749Z,24.23
2023-02-12T19:04:20.208Z,24.27
2023-02-12T19:06:50.405Z,22.38
2023-02-12T19:09:20.285Z,24.35
2023-02-12T19:11:49.157Z,22.20
2023-02-12T19:14:18.033Z,22.58
2023-02-12T19:16:46.002Z,23.85
2023-02-12T19:19:14.556Z,23.13
2023-02-12T19:21:41.927Z,24.20
2023-02-12T19:24:09.185Z,24.30
2023-02-12T19:26:36.557Z,25.35
2023-02-12T19:29:05.041Z,23.45
2023-02-12T19:31:37.978Z,24.95
2023-02-12T19:36:36.255Z,25.08
2023-02-12T19:39:04.540Z,24.65
2023-02-12T19:41:32.916Z,27.13
2023-02-12T19:44:01.518Z,28.65
2023-02-12T19:46:31.005Z,27.48
2023-02-12T19:49:00.314Z,29.00
2023-02-12T19:51:29.900Z,26.73
2023-02-12T19:54:04.874Z,25.60
2023-02-12T19:56:31.831Z,22.88
2023-02-12T19:58:59.020Z,22.55
2023-02-12T20:01:26.359Z,20.95
2023-02-12T20:03:53.722Z,22.23
2023-02-12T20:06:24.252Z,19.77
2023-02-12T20:08:51.584Z,19.30
2023-02-12T20:11:25.359Z,18.85
2023-02-12T20:13:52.897Z,16.55
2023-02-12T20:16:22.189Z,18.25
2023-02-12T20:18:51.859Z,17.17
2023-02-12T20:21:22.283Z,18.15
2023-02-12T20:23:49.563Z,19.10
2023-02-12T20:26:17.711Z,17.05
2023-02-12T20:28:45.246Z,17.25
2023-02-12T20:31:20.922Z,17.77
2023-02-12T20:33:48.741Z,17.27
2023-02-12T20:36:16.215Z,17.48
2023-02-12T20:38:44.806Z,16.95
2023-02-12T20:41:12.284Z,17.65
2023-02-12T20:43:39.807Z,16.65
2023-02-12T20:46:09.600Z,16.80
2023-02-12T20:48:37.338Z,16.00
2023-02-12T20:51:09.309Z,17.02
2023-02-12T20:53:36.593Z,16.70
2023-02-12T20:56:06.979Z,17.60
2023-02-12T20:58:34.220Z,16.00
2023-02-12T21:01:06.247Z,16.92
2023-02-12T21:03:33.673Z,15.48
2023-02-12T21:06:01.490Z,16.27
2023-02-12T21:08:28.738Z,16.15
2023-02-12T21:11:03.904Z,16.58
2023-02-12T21:13:30.749Z,15.45
2023-02-12T21:16:05.427Z,16.05
2023-02-12T21:18:32.689Z,15.43
2023-02-12T21:21:13.660Z,16.40
2023-02-12T21:23:41.110Z,16.13
2023-02-12T21:26:11.225Z,16.13
2023-02-12T21:28:39.062Z,15.65
2023-02-12T21:31:11.984Z,17.80
2023-02-12T21:33:40.781Z,17.13
2023-02-12T21:36:10.212Z,18.42
2023-02-12T21:38:40.806Z,18.67
2023-02-12T21:41:15.788Z,16.35
2023-02-12T21:43:45.492Z,16.17
2023-02-12T21:46:12.964Z,15.98
2023-02-12T21:48:40.301Z,17.20
2023-02-12T21:51:16.498Z,17.00
2023-02-12T21:53:43.723Z,15.55
2023-02-12T21:56:10.571Z,17.92
2023-02-12T21:58:37.852Z,17.70
2023-02-12T22:01:12.520Z,17.98
2023-02-12T22:03:39.843Z,17.70
2023-02-12T22:06:08.858Z,18.17
2023-02-12T22:08:36.617Z,18.13
2023-02-12T22:11:05.209Z,17.08
2023-02-12T22:13:32.986Z,17.77
2023-02-12T22:16:36.416Z,17.73
2023-02-12T22:19:04.038Z,16.92
2023-02-12T22:21:35.170Z,15.88
2023-02-12T22:24:04.417Z,17.88
2023-02-12T22:26:32.699Z,17.85
2023-02-12T22:29:08.519Z,17.08
2023-02-12T22:31:37.551Z,16.95
2023-02-12T22:34:07.255Z,17.58
2023-02-12T22:36:36.705Z,15.55
2023-02-12T22:39:04.278Z,16.73
2023-02-12T22:41:31.695Z,17.50
2023-02-12T22:44:00.789Z,17.33
2023-02-12T22:46:28.077Z,15.48
2023-02-12T22:48:55.598Z,16.10
2023-02-12T22:51:25.658Z,17.10
2023-02-12T22:53:53.254Z,17.20
2023-02-12T22:56:20.503Z,18.17
2023-02-12T22:58:48.065Z,16.95
2023-02-12T23:01:18.771Z,16.75
2023-02-12T23:03:46.330Z,17.35
2023-02-12T23:06:23.130Z,17.10
2023-02-12T23:08:56.373Z,17.80
2023-02-12T23:11:24.666Z,17.08
2023-02-12T23:13:52.470Z,17.17
2023-02-12T23:16:20.203Z,24.48
2023-02-12T23:18:47.392Z,16.73
2023-02-12T23:21:14.474Z,16.77
2023-02-12T23:23:41.671Z,17.05
2023-02-12T23:26:09.000Z,17.83
2023-02-12T23:28:35.893Z,17.95
2023-02-12T23:31:03.450Z,17.60
2023-02-12T23:33:30.439Z,17.83
2023-02-12T23:35:57.281Z,18.13
2023-02-12T23:38:24.085Z,18.73
2023-02-12T23:40:51.561Z,19.23
2023-02-12T23:43:18.801Z,19.70
2023-02-12T23:45:46.896Z,18.15
2023-02-12T23:48:14.645Z,19.75
2023-02-12T23:50:41.956Z,19.02
2023-02-12T23:53:10.219Z,19.45
2023-02-12T23:55:38.119Z,20.05
2023-02-12T23:58:06.014Z,19.90
